sensor_id;sensor_type;location;lat;lon;timestamp;P1;durP1;ratioP1;P2;durP2;ratioP2
64543;SDS011;50936;51.660;5.616;2022-08-04T00:00:10;7.68;;;3.70;;
64543;SDS011;50936;51.660;5.616;2022-08-04T00:11:24;8.68;;;4.57;;
64543;SDS011;50936;51.660;5.616;2022-08-04T00:13:57;8.63;;;4.88;;
64543;SDS011;50936;51.660;5.616;2022-08-04T00:16:34;9.10;;;4.28;;
64543;SDS011;50936;51.660;5.616;2022-08-04T00:19:25;9.27;;;4.43;;
64543;SDS011;50936;51.660;5.616;2022-08-04T00:22:05;10.02;;;4.05;;
64543;SDS011;50936;51.660;5.616;2022-08-04T00:24:35;8.68;;;4.60;;
64543;SDS011;50936;51.660;5.616;2022-08-04T00:27:03;9.98;;;4.60;;
64543;SDS011;50936;51.660;5.616;2022-08-04T00:29:31;8.02;;;4.35;;
64543;SDS011;50936;51.660;5.616;2022-08-04T00:31:59;8.68;;;4.40;;
64543;SDS011;50936;51.660;5.616;2022-08-04T00:34:29;8.60;;;4.70;;
64543;SDS011;50936;51.660;5.616;2022-08-04T00:36:59;13.10;;;5.00;;
64543;SDS011;50936;51.660;5.616;2022-08-04T00:39:26;13.70;;;4.90;;
64543;SDS011;50936;51.660;5.616;2022-08-04T00:48:20;8.07;;;4.38;;
64543;SDS011;50936;51.660;5.616;2022-08-04T01:00:08;13.00;;;4.57;;
64543;SDS011;50936;51.660;5.616;2022-08-04T01:02:49;10.30;;;4.60;;
64543;SDS011;50936;51.660;5.616;2022-08-04T01:05:26;13.05;;;4.45;;
64543;SDS011;50936;51.660;5.616;2022-08-04T01:08:27;8.32;;;4.35;;
64543;SDS011;50936;51.660;5.616;2022-08-04T01:20:06;9.95;;;4.47;;
64543;SDS011;50936;51.660;5.616;2022-08-04T01:25:56;9.73;;;4.68;;
64543;SDS011;50936;51.660;5.616;2022-08-04T01:29:03;7.93;;;4.55;;
64543;SDS011;50936;51.660;5.616;2022-08-04T01:31:59;12.32;;;5.03;;
64543;SDS011;50936;51.660;5.616;2022-08-04T01:34:38;12.95;;;4.95;;
64543;SDS011;50936;51.660;5.616;2022-08-04T01:40:07;9.52;;;4.22;;
64543;SDS011;50936;51.660;5.616;2022-08-04T01:42:34;8.50;;;4.57;;
64543;SDS011;50936;51.660;5.616;2022-08-04T01:45:07;8.02;;;4.60;;
64543;SDS011;50936;51.660;5.616;2022-08-04T01:47:42;13.63;;;4.88;;
64543;SDS011;50936;51.660;5.616;2022-08-04T01:50:16;11.02;;;4.40;;
64543;SDS011;50936;51.660;5.616;2022-08-04T01:52:44;12.10;;;4.70;;
64543;SDS011;50936;51.660;5.616;2022-08-04T01:55:16;13.85;;;5.10;;
64543;SDS011;50936;51.660;5.616;2022-08-04T01:57:45;9.88;;;5.18;;
64543;SDS011;50936;51.660;5.616;2022-08-04T02:00:23;10.55;;;5.00;;
64543;SDS011;50936;51.660;5.616;2022-08-04T02:02:53;11.73;;;5.18;;
64543;SDS011;50936;51.660;5.616;2022-08-04T02:05:23;8.68;;;5.03;;
64543;SDS011;50936;51.660;5.616;2022-08-04T02:08:20;9.30;;;4.57;;
64543;SDS011;50936;51.660;5.616;2022-08-04T02:11:11;9.93;;;4.82;;
64543;SDS011;50936;51.660;5.616;2022-08-04T02:14:50;11.48;;;5.20;;
64543;SDS011;50936;51.660;5.616;2022-08-04T02:17:08;8.70;;;4.93;;
64543;SDS011;50936;51.660;5.616;2022-08-04T02:22:46;13.52;;;5.10;;
64543;SDS011;50936;51.660;5.616;2022-08-04T02:25:55;14.35;;;4.45;;
64543;SDS011;50936;51.660;5.616;2022-08-04T02:31:32;15.75;;;4.78;;
64543;SDS011;50936;51.660;5.616;2022-08-04T02:37:19;8.95;;;4.68;;
64543;SDS011;50936;51.660;5.616;2022-08-04T02:39:51;10.93;;;4.85;;
64543;SDS011;50936;51.660;5.616;2022-08-04T02:42:19;10.15;;;4.70;;
64543;SDS011;50936;51.660;5.616;2022-08-04T02:44:48;12.52;;;4.40;;
64543;SDS011;50936;51.660;5.616;2022-08-04T02:47:19;11.98;;;4.32;;
64543;SDS011;50936;51.660;5.616;2022-08-04T02:50:09;9.35;;;4.30;;
64543;SDS011;50936;51.660;5.616;2022-08-04T02:55:23;8.55;;;4.35;;
64543;SDS011;50936;51.660;5.616;2022-08-04T02:57:55;8.60;;;4.20;;
64543;SDS011;50936;51.660;5.616;2022-08-04T03:00:27;9.93;;;4.13;;
64543;SDS011;50936;51.660;5.616;2022-08-04T03:40:54;10.00;;;4.50;;
64543;SDS011;50936;51.660;5.616;2022-08-04T04:29:02;11.60;;;5.60;;
64543;SDS011;50936;51.660;5.616;2022-08-04T04:31:58;11.90;;;5.40;;
64543;SDS011;50936;51.660;5.616;2022-08-04T04:34:56;14.77;;;6.25;;
64543;SDS011;50936;51.660;5.616;2022-08-04T04:49:53;15.80;;;5.55;;
64543;SDS011;50936;51.660;5.616;2022-08-04T04:52:55;14.85;;;5.63;;
64543;SDS011;50936;51.660;5.616;2022-08-04T04:55:30;15.68;;;6.00;;
64543;SDS011;50936;51.660;5.616;2022-08-04T04:58:14;14.68;;;6.55;;
64543;SDS011;50936;51.660;5.616;2022-08-04T05:19:22;14.18;;;6.88;;
64543;SDS011;50936;51.660;5.616;2022-08-04T05:22:07;14.30;;;7.13;;
64543;SDS011;50936;51.660;5.616;2022-08-04T05:24:48;12.98;;;7.38;;
64543;SDS011;50936;51.660;5.616;2022-08-04T05:27:28;17.00;;;7.65;;
64543;SDS011;50936;51.660;5.616;2022-08-04T05:30:06;18.25;;;7.22;;
64543;SDS011;50936;51.660;5.616;2022-08-04T05:32:49;13.40;;;8.02;;
64543;SDS011;50936;51.660;5.616;2022-08-04T05:35:27;13.73;;;7.75;;
64543;SDS011;50936;51.660;5.616;2022-08-04T05:38:22;13.77;;;7.07;;
64543;SDS011;50936;51.660;5.616;2022-08-04T05:41:04;15.35;;;8.13;;
64543;SDS011;50936;51.660;5.616;2022-08-04T05:43:34;13.35;;;7.75;;
64543;SDS011;50936;51.660;5.616;2022-08-04T05:46:05;13.10;;;6.72;;
64543;SDS011;50936;51.660;5.616;2022-08-04T05:48:36;12.00;;;7.53;;
64543;SDS011;50936;51.660;5.616;2022-08-04T05:51:05;14.10;;;7.53;;
64543;SDS011;50936;51.660;5.616;2022-08-04T05:53:36;13.80;;;6.68;;
64543;SDS011;50936;51.660;5.616;2022-08-04T05:56:08;12.73;;;7.18;;
64543;SDS011;50936;51.660;5.616;2022-08-04T05:58:39;16.75;;;8.10;;
64543;SDS011;50936;51.660;5.616;2022-08-04T06:01:08;14.38;;;7.13;;
64543;SDS011;50936;51.660;5.616;2022-08-04T06:03:37;14.27;;;7.68;;
64543;SDS011;50936;51.660;5.616;2022-08-04T06:06:06;19.00;;;7.85;;
64543;SDS011;50936;51.660;5.616;2022-08-04T06:08:36;20.70;;;8.23;;
64543;SDS011;50936;51.660;5.616;2022-08-04T06:11:04;14.07;;;6.80;;
64543;SDS011;50936;51.660;5.616;2022-08-04T06:13:46;15.32;;;7.32;;
64543;SDS011;50936;51.660;5.616;2022-08-04T06:16:23;14.32;;;7.47;;
64543;SDS011;50936;51.660;5.616;2022-08-04T06:18:57;17.88;;;8.13;;
64543;SDS011;50936;51.660;5.616;2022-08-04T06:21:52;15.52;;;8.15;;
64543;SDS011;50936;51.660;5.616;2022-08-04T06:24:22;23.98;;;11.00;;
64543;SDS011;50936;51.660;5.616;2022-08-04T06:26:53;15.48;;;7.13;;
64543;SDS011;50936;51.660;5.616;2022-08-04T06:29:22;18.70;;;6.93;;
64543;SDS011;50936;51.660;5.616;2022-08-04T06:32:17;14.80;;;6.88;;
64543;SDS011;50936;51.660;5.616;2022-08-04T06:35:07;15.18;;;7.75;;
64543;SDS011;50936;51.660;5.616;2022-08-04T06:37:35;13.35;;;6.80;;
64543;SDS011;50936;51.660;5.616;2022-08-04T06:40:08;12.23;;;6.07;;
64543;SDS011;50936;51.660;5.616;2022-08-04T06:43:01;15.43;;;6.43;;
64543;SDS011;50936;51.660;5.616;2022-08-04T06:45:33;14.05;;;6.05;;
64543;SDS011;50936;51.660;5.616;2022-08-04T06:48:03;13.60;;;6.05;;
64543;SDS011;50936;51.660;5.616;2022-08-04T06:50:35;12.95;;;6.05;;
64543;SDS011;50936;51.660;5.616;2022-08-04T06:53:23;14.13;;;5.70;;
64543;SDS011;50936;51.660;5.616;2022-08-04T06:55:52;12.73;;;5.97;;
64543;SDS011;50936;51.660;5.616;2022-08-04T06:58:21;13.73;;;5.03;;
64543;SDS011;50936;51.660;5.616;2022-08-04T07:00:50;9.95;;;4.15;;
64543;SDS011;50936;51.660;5.616;2022-08-04T07:03:20;12.18;;;4.70;;
64543;SDS011;50936;51.660;5.616;2022-08-04T07:05:48;9.38;;;4.05;;
64543;SDS011;50936;51.660;5.616;2022-08-04T07:08:17;10.55;;;4.13;;
64543;SDS011;50936;51.660;5.616;2022-08-04T07:10:45;11.88;;;4.25;;
64543;SDS011;50936;51.660;5.616;2022-08-04T07:13:12;12.38;;;4.15;;
64543;SDS011;50936;51.660;5.616;2022-08-04T07:15:43;9.38;;;4.45;;
64543;SDS011;50936;51.660;5.616;2022-08-04T07:18:12;8.90;;;4.10;;
64543;SDS011;50936;51.660;5.616;2022-08-04T07:20:42;14.35;;;3.50;;
64543;SDS011;50936;51.660;5.616;2022-08-04T07:23:15;10.43;;;3.70;;
64543;SDS011;50936;51.660;5.616;2022-08-04T07:25:43;10.73;;;3.70;;
64543;SDS011;50936;51.660;5.616;2022-08-04T07:28:38;9.90;;;4.22;;
64543;SDS011;50936;51.660;5.616;2022-08-04T07:31:08;12.27;;;4.45;;
64543;SDS011;50936;51.660;5.616;2022-08-04T07:34:00;13.57;;;5.30;;
64543;SDS011;50936;51.660;5.616;2022-08-04T07:36:48;11.05;;;5.78;;
64543;SDS011;50936;51.660;5.616;2022-08-04T07:39:21;15.20;;;7.50;;
64543;SDS011;50936;51.660;5.616;2022-08-04T07:41:54;15.55;;;7.05;;
64543;SDS011;50936;51.660;5.616;2022-08-04T07:44:24;17.27;;;7.47;;
64543;SDS011;50936;51.660;5.616;2022-08-04T07:46:51;18.10;;;9.75;;
64543;SDS011;50936;51.660;5.616;2022-08-04T07:49:19;20.05;;;11.70;;
64543;SDS011;50936;51.660;5.616;2022-08-04T07:52:06;21.95;;;12.23;;
64543;SDS011;50936;51.660;5.616;2022-08-04T07:54:34;24.67;;;13.70;;
64543;SDS011;50936;51.660;5.616;2022-08-04T07:57:02;20.77;;;12.00;;
64543;SDS011;50936;51.660;5.616;2022-08-04T07:59:29;18.92;;;11.10;;
64543;SDS011;50936;51.660;5.616;2022-08-04T08:01:58;20.35;;;10.82;;
64543;SDS011;50936;51.660;5.616;2022-08-04T08:04:27;21.25;;;11.13;;
64543;SDS011;50936;51.660;5.616;2022-08-04T08:06:58;18.00;;;9.02;;
64543;SDS011;50936;51.660;5.616;2022-08-04T08:09:25;13.82;;;8.27;;
64543;SDS011;50936;51.660;5.616;2022-08-04T08:11:52;16.33;;;8.65;;
64543;SDS011;50936;51.660;5.616;2022-08-04T08:14:40;16.55;;;9.43;;
64543;SDS011;50936;51.660;5.616;2022-08-04T08:17:07;15.98;;;8.88;;
64543;SDS011;50936;51.660;5.616;2022-08-04T08:19:35;17.23;;;8.93;;
64543;SDS011;50936;51.660;5.616;2022-08-04T08:22:02;22.15;;;9.48;;
64543;SDS011;50936;51.660;5.616;2022-08-04T08:24:32;15.20;;;9.35;;
64543;SDS011;50936;51.660;5.616;2022-08-04T08:27:03;14.55;;;9.38;;
64543;SDS011;50936;51.660;5.616;2022-08-04T08:29:32;17.80;;;9.63;;
64543;SDS011;50936;51.660;5.616;2022-08-04T08:32:01;22.13;;;8.80;;
64543;SDS011;50936;51.660;5.616;2022-08-04T08:34:34;16.20;;;8.23;;
64543;SDS011;50936;51.660;5.616;2022-08-04T08:40:16;16.75;;;8.23;;
64543;SDS011;50936;51.660;5.616;2022-08-04T08:43:18;17.02;;;7.20;;
64543;SDS011;50936;51.660;5.616;2022-08-04T08:50:03;13.85;;;6.85;;
64543;SDS011;50936;51.660;5.616;2022-08-04T09:04:51;14.90;;;5.22;;
64543;SDS011;50936;51.660;5.616;2022-08-04T09:13:14;11.05;;;4.65;;
64543;SDS011;50936;51.660;5.616;2022-08-04T09:16:05;14.38;;;4.40;;
64543;SDS011;50936;51.660;5.616;2022-08-04T09:18:59;10.13;;;3.53;;
64543;SDS011;50936;51.660;5.616;2022-08-04T09:25:10;8.13;;;3.30;;
64543;SDS011;50936;51.660;5.616;2022-08-04T09:30:37;8.05;;;2.58;;
64543;SDS011;50936;51.660;5.616;2022-08-04T09:42:19;5.65;;;2.22;;
64543;SDS011;50936;51.660;5.616;2022-08-04T09:45:09;8.40;;;2.47;;
64543;SDS011;50936;51.660;5.616;2022-08-04T09:48:14;6.93;;;2.70;;
64543;SDS011;50936;51.660;5.616;2022-08-04T09:50:57;9.38;;;2.63;;
64543;SDS011;50936;51.660;5.616;2022-08-04T09:56:35;5.93;;;1.88;;
64543;SDS011;50936;51.660;5.616;2022-08-04T09:59:23;9.70;;;2.38;;
64543;SDS011;50936;51.660;5.616;2022-08-04T10:01:57;7.50;;;2.35;;
64543;SDS011;50936;51.660;5.616;2022-08-04T10:04:32;6.47;;;1.98;;
64543;SDS011;50936;51.660;5.616;2022-08-04T10:12:50;4.00;;;1.83;;
64543;SDS011;50936;51.660;5.616;2022-08-04T10:21:35;10.35;;;2.20;;
64543;SDS011;50936;51.660;5.616;2022-08-04T10:24:52;8.70;;;2.67;;
64543;SDS011;50936;51.660;5.616;2022-08-04T10:27:58;10.05;;;2.00;;
64543;SDS011;50936;51.660;5.616;2022-08-04T10:30:32;9.32;;;2.17;;
64543;SDS011;50936;51.660;5.616;2022-08-04T10:33:17;6.30;;;2.00;;
64543;SDS011;50936;51.660;5.616;2022-08-04T10:35:54;8.00;;;2.20;;
64543;SDS011;50936;51.660;5.616;2022-08-04T10:44:51;11.80;;;3.38;;
64543;SDS011;50936;51.660;5.616;2022-08-04T10:47:50;12.43;;;3.25;;
64543;SDS011;50936;51.660;5.616;2022-08-04T10:50:27;8.57;;;3.30;;
64543;SDS011;50936;51.660;5.616;2022-08-04T10:53:00;5.97;;;2.80;;
64543;SDS011;50936;51.660;5.616;2022-08-04T10:55:40;7.97;;;3.35;;
64543;SDS011;50936;51.660;5.616;2022-08-04T10:58:48;10.68;;;4.05;;
64543;SDS011;50936;51.660;5.616;2022-08-04T11:01:23;12.95;;;4.68;;
64543;SDS011;50936;51.660;5.616;2022-08-04T11:04:34;9.70;;;4.13;;
64543;SDS011;50936;51.660;5.616;2022-08-04T11:07:07;11.10;;;3.90;;
64543;SDS011;50936;51.660;5.616;2022-08-04T11:09:38;12.68;;;4.00;;
64543;SDS011;50936;51.660;5.616;2022-08-04T11:12:11;9.25;;;4.25;;
64543;SDS011;50936;51.660;5.616;2022-08-04T11:17:40;13.75;;;4.60;;
64543;SDS011;50936;51.660;5.616;2022-08-04T11:20:36;8.85;;;4.80;;
64543;SDS011;50936;51.660;5.616;2022-08-04T11:23:12;10.82;;;4.70;;
64543;SDS011;50936;51.660;5.616;2022-08-04T11:25:50;11.80;;;4.10;;
64543;SDS011;50936;51.660;5.616;2022-08-04T11:31:05;10.07;;;4.72;;
64543;SDS011;50936;51.660;5.616;2022-08-04T11:39:32;8.50;;;4.63;;
64543;SDS011;50936;51.660;5.616;2022-08-04T11:45:05;12.27;;;4.32;;
64543;SDS011;50936;51.660;5.616;2022-08-04T11:48:08;9.85;;;3.72;;
64543;SDS011;50936;51.660;5.616;2022-08-04T11:50:46;9.40;;;3.92;;
64543;SDS011;50936;51.660;5.616;2022-08-04T11:53:21;9.57;;;3.15;;
64543;SDS011;50936;51.660;5.616;2022-08-04T11:56:03;8.40;;;2.97;;
64543;SDS011;50936;51.660;5.616;2022-08-04T11:58:38;9.50;;;3.90;;
64543;SDS011;50936;51.660;5.616;2022-08-04T12:03:58;8.10;;;3.17;;
64543;SDS011;50936;51.660;5.616;2022-08-04T12:07:06;5.25;;;2.75;;
64543;SDS011;50936;51.660;5.616;2022-08-04T12:22:31;6.63;;;3.20;;
64543;SDS011;50936;51.660;5.616;2022-08-04T12:25:11;7.53;;;3.40;;
64543;SDS011;50936;51.660;5.616;2022-08-04T12:27:46;7.57;;;3.30;;
64543;SDS011;50936;51.660;5.616;2022-08-04T12:30:20;6.68;;;3.35;;
64543;SDS011;50936;51.660;5.616;2022-08-04T12:33:09;7.10;;;3.50;;
64543;SDS011;50936;51.660;5.616;2022-08-04T12:38:37;7.70;;;3.20;;
64543;SDS011;50936;51.660;5.616;2022-08-04T12:41:23;7.43;;;3.60;;
64543;SDS011;50936;51.660;5.616;2022-08-04T12:44:05;7.45;;;3.22;;
64543;SDS011;50936;51.660;5.616;2022-08-04T12:46:58;6.57;;;3.42;;
64543;SDS011;50936;51.660;5.616;2022-08-04T12:49:48;6.50;;;3.47;;
64543;SDS011;50936;51.660;5.616;2022-08-04T12:52:26;10.00;;;4.80;;
64543;SDS011;50936;51.660;5.616;2022-08-04T12:55:26;8.80;;;4.53;;
64543;SDS011;50936;51.660;5.616;2022-08-04T12:57:57;8.63;;;4.75;;
64543;SDS011;50936;51.660;5.616;2022-08-04T13:00:31;10.43;;;5.20;;
64543;SDS011;50936;51.660;5.616;2022-08-04T13:03:10;8.18;;;4.43;;
64543;SDS011;50936;51.660;5.616;2022-08-04T13:05:42;8.13;;;4.30;;
64543;SDS011;50936;51.660;5.616;2022-08-04T13:08:12;7.60;;;3.97;;
64543;SDS011;50936;51.660;5.616;2022-08-04T13:10:45;8.45;;;4.13;;
64543;SDS011;50936;51.660;5.616;2022-08-04T13:13:19;8.05;;;4.30;;
64543;SDS011;50936;51.660;5.616;2022-08-04T13:18:57;7.43;;;3.97;;
64543;SDS011;50936;51.660;5.616;2022-08-04T13:21:30;8.25;;;3.90;;
64543;SDS011;50936;51.660;5.616;2022-08-04T13:24:19;11.10;;;4.82;;
64543;SDS011;50936;51.660;5.616;2022-08-04T13:27:03;7.20;;;3.78;;
64543;SDS011;50936;51.660;5.616;2022-08-04T13:29:42;11.57;;;4.68;;
64543;SDS011;50936;51.660;5.616;2022-08-04T13:32:29;8.13;;;4.20;;
64543;SDS011;50936;51.660;5.616;2022-08-04T13:34:59;8.85;;;4.13;;
64543;SDS011;50936;51.660;5.616;2022-08-04T13:37:37;10.43;;;4.10;;
64543;SDS011;50936;51.660;5.616;2022-08-04T13:40:08;6.35;;;3.60;;
64543;SDS011;50936;51.660;5.616;2022-08-04T13:42:40;8.98;;;3.90;;
64543;SDS011;50936;51.660;5.616;2022-08-04T13:45:14;9.93;;;4.28;;
64543;SDS011;50936;51.660;5.616;2022-08-04T13:48:00;8.30;;;3.88;;
64543;SDS011;50936;51.660;5.616;2022-08-04T13:50:48;9.38;;;4.30;;
64543;SDS011;50936;51.660;5.616;2022-08-04T13:53:16;7.70;;;4.20;;
64543;SDS011;50936;51.660;5.616;2022-08-04T13:55:47;8.57;;;4.43;;
64543;SDS011;50936;51.660;5.616;2022-08-04T13:58:25;9.15;;;4.20;;
64543;SDS011;50936;51.660;5.616;2022-08-04T14:01:06;7.25;;;3.90;;
64543;SDS011;50936;51.660;5.616;2022-08-04T14:06:32;7.75;;;3.70;;
64543;SDS011;50936;51.660;5.616;2022-08-04T14:09:11;8.82;;;4.32;;
64543;SDS011;50936;51.660;5.616;2022-08-04T14:11:45;7.45;;;3.45;;
64543;SDS011;50936;51.660;5.616;2022-08-04T14:14:49;6.90;;;3.35;;
64543;SDS011;50936;51.660;5.616;2022-08-04T14:17:22;7.70;;;3.03;;
64543;SDS011;50936;51.660;5.616;2022-08-04T14:19:57;10.07;;;3.03;;
64543;SDS011;50936;51.660;5.616;2022-08-04T14:25:07;6.72;;;2.65;;
64543;SDS011;50936;51.660;5.616;2022-08-04T14:30:24;6.53;;;2.70;;
64543;SDS011;50936;51.660;5.616;2022-08-04T14:33:11;6.07;;;2.60;;
64543;SDS011;50936;51.660;5.616;2022-08-04T14:35:58;5.40;;;2.88;;
64543;SDS011;50936;51.660;5.616;2022-08-04T14:38:46;11.23;;;3.05;;
64543;SDS011;50936;51.660;5.616;2022-08-04T14:41:24;7.40;;;3.05;;
64543;SDS011;50936;51.660;5.616;2022-08-04T14:44:09;6.47;;;2.97;;
64543;SDS011;50936;51.660;5.616;2022-08-04T14:46:47;8.88;;;2.90;;
64543;SDS011;50936;51.660;5.616;2022-08-04T14:49:20;6.57;;;2.60;;
64543;SDS011;50936;51.660;5.616;2022-08-04T14:51:58;7.38;;;2.70;;
64543;SDS011;50936;51.660;5.616;2022-08-04T14:54:31;7.53;;;2.60;;
64543;SDS011;50936;51.660;5.616;2022-08-04T14:57:04;5.95;;;2.67;;
64543;SDS011;50936;51.660;5.616;2022-08-04T14:59:47;6.03;;;2.70;;
64543;SDS011;50936;51.660;5.616;2022-08-04T15:02:27;6.90;;;2.65;;
64543;SDS011;50936;51.660;5.616;2022-08-04T15:04:55;4.63;;;2.05;;
64543;SDS011;50936;51.660;5.616;2022-08-04T15:07:44;5.75;;;2.40;;
64543;SDS011;50936;51.660;5.616;2022-08-04T15:10:11;7.25;;;2.05;;
64543;SDS011;50936;51.660;5.616;2022-08-04T15:12:38;4.45;;;2.03;;
64543;SDS011;50936;51.660;5.616;2022-08-04T15:15:06;5.05;;;1.80;;
64543;SDS011;50936;51.660;5.616;2022-08-04T15:17:53;6.53;;;1.95;;
64543;SDS011;50936;51.660;5.616;2022-08-04T15:20:21;5.97;;;2.10;;
64543;SDS011;50936;51.660;5.616;2022-08-04T15:22:48;5.78;;;2.20;;
64543;SDS011;50936;51.660;5.616;2022-08-04T15:25:15;4.82;;;2.15;;
64543;SDS011;50936;51.660;5.616;2022-08-04T15:27:45;5.32;;;2.38;;
64543;SDS011;50936;51.660;5.616;2022-08-04T15:30:15;5.82;;;2.60;;
64543;SDS011;50936;51.660;5.616;2022-08-04T15:32:48;4.75;;;1.90;;
64543;SDS011;50936;51.660;5.616;2022-08-04T15:35:20;5.68;;;2.17;;
64543;SDS011;50936;51.660;5.616;2022-08-04T15:38:05;6.95;;;2.40;;
64543;SDS011;50936;51.660;5.616;2022-08-04T15:40:51;4.88;;;2.63;;
64543;SDS011;50936;51.660;5.616;2022-08-04T15:47:00;3.92;;;2.08;;
64543;SDS011;50936;51.660;5.616;2022-08-04T15:49:29;8.60;;;3.10;;
64543;SDS011;50936;51.660;5.616;2022-08-04T15:52:00;5.72;;;2.70;;
64543;SDS011;50936;51.660;5.616;2022-08-04T15:54:37;4.63;;;2.20;;
64543;SDS011;50936;51.660;5.616;2022-08-04T15:57:17;5.82;;;2.55;;
64543;SDS011;50936;51.660;5.616;2022-08-04T16:00:27;4.28;;;2.40;;
64543;SDS011;50936;51.660;5.616;2022-08-04T16:02:54;6.10;;;2.53;;
64543;SDS011;50936;51.660;5.616;2022-08-04T16:07:58;5.10;;;2.05;;
64543;SDS011;50936;51.660;5.616;2022-08-04T16:10:36;5.82;;;2.33;;
64543;SDS011;50936;51.660;5.616;2022-08-04T16:13:10;4.57;;;2.33;;
64543;SDS011;50936;51.660;5.616;2022-08-04T16:15:48;5.28;;;2.38;;
64543;SDS011;50936;51.660;5.616;2022-08-04T16:21:01;5.88;;;2.60;;
64543;SDS011;50936;51.660;5.616;2022-08-04T16:34:30;7.18;;;2.30;;
64543;SDS011;50936;51.660;5.616;2022-08-04T16:37:16;8.95;;;2.42;;
64543;SDS011;50936;51.660;5.616;2022-08-04T16:39:45;6.32;;;2.67;;
64543;SDS011;50936;51.660;5.616;2022-08-04T16:44:59;7.47;;;3.00;;
64543;SDS011;50936;51.660;5.616;2022-08-04T16:50:16;8.07;;;2.38;;
64543;SDS011;50936;51.660;5.616;2022-08-04T16:52:48;6.00;;;2.20;;
64543;SDS011;50936;51.660;5.616;2022-08-04T16:55:21;3.67;;;1.83;;
64543;SDS011;50936;51.660;5.616;2022-08-04T16:57:56;6.43;;;2.00;;
64543;SDS011;50936;51.660;5.616;2022-08-04T17:00:33;5.47;;;1.73;;
64543;SDS011;50936;51.660;5.616;2022-08-04T17:03:06;3.42;;;1.80;;
64543;SDS011;50936;51.660;5.616;2022-08-04T17:05:37;7.05;;;1.90;;
64543;SDS011;50936;51.660;5.616;2022-08-04T17:08:06;3.80;;;1.92;;
64543;SDS011;50936;51.660;5.616;2022-08-04T17:10:54;5.10;;;2.13;;
64543;SDS011;50936;51.660;5.616;2022-08-04T17:13:31;4.30;;;1.98;;
64543;SDS011;50936;51.660;5.616;2022-08-04T17:16:27;5.35;;;2.08;;
64543;SDS011;50936;51.660;5.616;2022-08-04T17:18:54;5.38;;;1.88;;
64543;SDS011;50936;51.660;5.616;2022-08-04T17:21:23;2.80;;;1.45;;
64543;SDS011;50936;51.660;5.616;2022-08-04T17:23:53;5.10;;;1.98;;
64543;SDS011;50936;51.660;5.616;2022-08-04T17:26:43;5.00;;;1.80;;
64543;SDS011;50936;51.660;5.616;2022-08-04T17:29:23;6.25;;;1.80;;
64543;SDS011;50936;51.660;5.616;2022-08-04T17:32:16;5.95;;;2.03;;
64543;SDS011;50936;51.660;5.616;2022-08-04T17:34:48;4.28;;;1.63;;
64543;SDS011;50936;51.660;5.616;2022-08-04T17:37:17;5.50;;;1.88;;
64543;SDS011;50936;51.660;5.616;2022-08-04T17:40:08;4.72;;;1.98;;
64543;SDS011;50936;51.660;5.616;2022-08-04T17:42:39;5.38;;;2.00;;
64543;SDS011;50936;51.660;5.616;2022-08-04T17:45:11;6.13;;;1.55;;
64543;SDS011;50936;51.660;5.616;2022-08-04T17:48:04;6.13;;;1.73;;
64543;SDS011;50936;51.660;5.616;2022-08-04T17:50:49;4.70;;;1.63;;
64543;SDS011;50936;51.660;5.616;2022-08-04T17:53:16;4.50;;;1.77;;
64543;SDS011;50936;51.660;5.616;2022-08-04T17:56:29;5.20;;;1.70;;
64543;SDS011;50936;51.660;5.616;2022-08-04T18:02:21;5.55;;;1.85;;
64543;SDS011;50936;51.660;5.616;2022-08-04T18:05:02;6.20;;;1.70;;
64543;SDS011;50936;51.660;5.616;2022-08-04T18:07:41;5.50;;;1.83;;
64543;SDS011;50936;51.660;5.616;2022-08-04T18:10:35;5.13;;;1.80;;
64543;SDS011;50936;51.660;5.616;2022-08-04T18:13:19;4.75;;;1.92;;
64543;SDS011;50936;51.660;5.616;2022-08-04T18:15:48;5.32;;;1.98;;
64543;SDS011;50936;51.660;5.616;2022-08-04T18:18:20;6.03;;;2.20;;
64543;SDS011;50936;51.660;5.616;2022-08-04T18:20:49;3.08;;;1.58;;
64543;SDS011;50936;51.660;5.616;2022-08-04T18:23:15;4.70;;;1.65;;
64543;SDS011;50936;51.660;5.616;2022-08-04T18:25:45;5.65;;;2.08;;
64543;SDS011;50936;51.660;5.616;2022-08-04T18:28:17;4.40;;;1.85;;
64543;SDS011;50936;51.660;5.616;2022-08-04T18:30:52;5.57;;;2.13;;
64543;SDS011;50936;51.660;5.616;2022-08-04T18:33:20;3.95;;;1.70;;
64543;SDS011;50936;51.660;5.616;2022-08-04T18:36:06;4.57;;;1.85;;
64543;SDS011;50936;51.660;5.616;2022-08-04T18:38:53;5.53;;;1.80;;
64543;SDS011;50936;51.660;5.616;2022-08-04T18:41:24;3.45;;;1.88;;
64543;SDS011;50936;51.660;5.616;2022-08-04T18:44:13;3.22;;;1.73;;
64543;SDS011;50936;51.660;5.616;2022-08-04T18:46:42;4.03;;;1.77;;
64543;SDS011;50936;51.660;5.616;2022-08-04T18:49:21;6.45;;;1.80;;
64543;SDS011;50936;51.660;5.616;2022-08-04T18:52:09;3.42;;;1.52;;
64543;SDS011;50936;51.660;5.616;2022-08-04T18:54:41;6.63;;;1.85;;
64543;SDS011;50936;51.660;5.616;2022-08-04T18:57:09;7.88;;;2.13;;
64543;SDS011;50936;51.660;5.616;2022-08-04T18:59:56;6.70;;;2.20;;
64543;SDS011;50936;51.660;5.616;2022-08-04T19:02:25;5.00;;;1.90;;
64543;SDS011;50936;51.660;5.616;2022-08-04T19:04:52;4.22;;;2.20;;
64543;SDS011;50936;51.660;5.616;2022-08-04T19:07:19;7.95;;;2.35;;
64543;SDS011;50936;51.660;5.616;2022-08-04T19:10:06;3.33;;;1.50;;
64543;SDS011;50936;51.660;5.616;2022-08-04T19:12:51;4.43;;;1.88;;
64543;SDS011;50936;51.660;5.616;2022-08-04T19:15:18;5.90;;;2.20;;
64543;SDS011;50936;51.660;5.616;2022-08-04T19:17:59;5.13;;;2.00;;
64543;SDS011;50936;51.660;5.616;2022-08-04T19:20:27;5.38;;;1.65;;
64543;SDS011;50936;51.660;5.616;2022-08-04T19:22:55;4.68;;;1.58;;
64543;SDS011;50936;51.660;5.616;2022-08-04T19:25:42;4.40;;;1.88;;
64543;SDS011;50936;51.660;5.616;2022-08-04T19:28:29;5.07;;;1.83;;
64543;SDS011;50936;51.660;5.616;2022-08-04T19:31:01;5.47;;;2.22;;
64543;SDS011;50936;51.660;5.616;2022-08-04T19:33:33;7.20;;;2.25;;
64543;SDS011;50936;51.660;5.616;2022-08-04T19:36:21;4.15;;;1.70;;
64543;SDS011;50936;51.660;5.616;2022-08-04T19:38:55;4.03;;;1.83;;
64543;SDS011;50936;51.660;5.616;2022-08-04T19:41:23;6.50;;;2.42;;
64543;SDS011;50936;51.660;5.616;2022-08-04T19:43:52;4.47;;;2.00;;
64543;SDS011;50936;51.660;5.616;2022-08-04T19:46:20;5.25;;;1.90;;
64543;SDS011;50936;51.660;5.616;2022-08-04T19:48:50;5.70;;;1.88;;
64543;SDS011;50936;51.660;5.616;2022-08-04T19:51:26;6.30;;;1.88;;
64543;SDS011;50936;51.660;5.616;2022-08-04T19:53:55;4.72;;;1.92;;
64543;SDS011;50936;51.660;5.616;2022-08-04T19:56:36;4.50;;;2.10;;
64543;SDS011;50936;51.660;5.616;2022-08-04T19:59:07;3.40;;;2.10;;
64543;SDS011;50936;51.660;5.616;2022-08-04T20:01:35;4.47;;;2.05;;
64543;SDS011;50936;51.660;5.616;2022-08-04T20:04:10;4.20;;;2.30;;
64543;SDS011;50936;51.660;5.616;2022-08-04T20:06:39;5.82;;;2.03;;
64543;SDS011;50936;51.660;5.616;2022-08-04T20:09:07;5.68;;;2.08;;
64543;SDS011;50936;51.660;5.616;2022-08-04T20:11:55;7.55;;;2.53;;
64543;SDS011;50936;51.660;5.616;2022-08-04T20:14:23;7.93;;;2.10;;
64543;SDS011;50936;51.660;5.616;2022-08-04T20:17:13;4.55;;;2.40;;
64543;SDS011;50936;51.660;5.616;2022-08-04T20:19:43;6.75;;;2.20;;
64543;SDS011;50936;51.660;5.616;2022-08-04T20:22:17;5.80;;;2.85;;
64543;SDS011;50936;51.660;5.616;2022-08-04T20:25:07;5.38;;;2.13;;
64543;SDS011;50936;51.660;5.616;2022-08-04T20:27:54;3.70;;;1.98;;
64543;SDS011;50936;51.660;5.616;2022-08-04T20:30:26;8.60;;;2.35;;
64543;SDS011;50936;51.660;5.616;2022-08-04T20:32:56;4.63;;;2.22;;
64543;SDS011;50936;51.660;5.616;2022-08-04T20:35:23;6.47;;;2.67;;
64543;SDS011;50936;51.660;5.616;2022-08-04T20:37:52;5.10;;;1.95;;
64543;SDS011;50936;51.660;5.616;2022-08-04T20:40:25;5.25;;;2.25;;
64543;SDS011;50936;51.660;5.616;2022-08-04T20:42:52;5.32;;;2.35;;